createdAt,value
2022-12-15T00:02:54.253Z,47.83
2022-12-15T00:06:15.007Z,34.10
2022-12-15T00:09:35.724Z,36.53
2022-12-15T00:12:56.129Z,40.53
2022-12-15T00:16:16.799Z,40.57
2022-12-15T00:19:38.649Z,27.03
2022-12-15T00:22:59.178Z,35.20
2022-12-15T00:26:20.186Z,32.97
2022-12-15T00:29:40.525Z,35.70
2022-12-15T00:33:00.783Z,36.73
2022-12-15T00:36:22.741Z,34.00
2022-12-15T00:39:25.819Z,34.07
2022-12-15T00:42:29.464Z,27.80
2022-12-15T00:45:46.457Z,33.57
2022-12-15T00:48:50.133Z,36.17
2022-12-15T00:52:11.934Z,35.53
2022-12-15T00:55:32.551Z,40.30
2022-12-15T00:58:52.895Z,36.37
2022-12-15T01:02:15.473Z,33.17
2022-12-15T01:05:35.912Z,34.70
2022-12-15T01:08:57.781Z,31.50
2022-12-15T01:12:18.076Z,36.60
2022-12-15T01:15:38.765Z,37.30
2022-12-15T01:18:59.157Z,33.30
2022-12-15T01:22:02.258Z,33.80
2022-12-15T01:25:08.887Z,32.70
2022-12-15T01:28:11.942Z,32.23
2022-12-15T01:31:15.378Z,34.50
2022-12-15T01:34:20.170Z,40.43
2022-12-15T01:37:23.420Z,33.03
2022-12-15T01:40:44.621Z,29.80
2022-12-15T01:43:47.807Z,36.43
2022-12-15T01:46:56.839Z,33.90
2022-12-15T01:50:00.048Z,30.70
2022-12-15T01:53:04.551Z,33.70
2022-12-15T01:56:10.649Z,34.13
2022-12-15T01:59:17.609Z,29.30
2022-12-15T02:02:23.543Z,33.20
2022-12-15T02:05:26.780Z,38.63
2022-12-15T02:08:31.249Z,32.03
2022-12-15T02:11:57.320Z,33.60
2022-12-15T02:15:17.317Z,32.23
2022-12-15T02:18:24.477Z,37.20
2022-12-15T02:21:32.518Z,35.77
2022-12-15T02:24:52.883Z,33.57
2022-12-15T02:28:03.177Z,31.53
2022-12-15T02:31:31.013Z,32.83
2022-12-15T02:34:40.263Z,33.23
2022-12-15T02:37:43.991Z,29.87
2022-12-15T02:40:47.089Z,33.93
2022-12-15T02:43:50.317Z,30.40
2022-12-15T02:47:14.627Z,34.17
2022-12-15T02:50:42.323Z,32.80
2022-12-15T02:54:11.535Z,27.60
2022-12-15T02:57:22.909Z,30.80
2022-12-15T03:00:26.058Z,30.93
2022-12-15T03:03:33.441Z,29.70
2022-12-15T03:06:37.076Z,27.47
2022-12-15T03:09:40.181Z,36.37
2022-12-15T03:12:43.262Z,31.43
2022-12-15T03:15:46.354Z,29.27
2022-12-15T03:18:51.189Z,30.57
2022-12-15T03:21:54.405Z,30.83
2022-12-15T03:24:57.466Z,37.40
2022-12-15T03:28:00.831Z,34.07
2022-12-15T03:31:03.924Z,30.80
2022-12-15T03:34:08.458Z,32.20
2022-12-15T03:37:11.575Z,28.50
2022-12-15T03:40:14.958Z,33.80
2022-12-15T03:43:18.139Z,36.97
2022-12-15T03:46:21.290Z,29.77
2022-12-15T03:49:25.895Z,26.97
2022-12-15T03:52:28.986Z,35.10
2022-12-15T03:55:32.460Z,31.13
2022-12-15T03:58:35.605Z,33.80
2022-12-15T04:01:39.116Z,30.13
2022-12-15T04:04:43.637Z,29.90
2022-12-15T04:07:46.809Z,34.77
2022-12-15T04:10:49.858Z,32.43
2022-12-15T04:13:52.944Z,33.37
2022-12-15T04:16:56.128Z,29.70
2022-12-15T04:20:12.420Z,28.17
2022-12-15T04:23:15.544Z,31.83
2022-12-15T04:26:36.158Z,36.00
2022-12-15T04:29:56.606Z,36.60
2022-12-15T04:33:18.699Z,30.23
2022-12-15T04:36:41.395Z,35.43
2022-12-15T04:40:05.921Z,31.00
2022-12-15T04:43:26.318Z,34.97
2022-12-15T04:46:46.659Z,30.50
2022-12-15T04:50:07.358Z,36.07
2022-12-15T04:53:31.041Z,31.60
2022-12-15T04:56:51.830Z,35.47
2022-12-15T05:00:12.332Z,31.37
2022-12-15T05:03:32.878Z,33.77
2022-12-15T05:06:53.679Z,35.83
2022-12-15T05:10:15.554Z,33.07
2022-12-15T05:13:36.073Z,39.27
2022-12-15T05:16:56.726Z,37.10
2022-12-15T05:20:16.933Z,30.77
2022-12-15T05:23:37.230Z,39.73
2022-12-15T05:26:58.867Z,32.77
2022-12-15T05:30:19.231Z,35.20
2022-12-15T05:33:22.342Z,35.27
2022-12-15T05:36:25.505Z,37.77
2022-12-15T05:39:29.034Z,33.47
2022-12-15T05:42:33.466Z,34.60
2022-12-15T05:45:36.988Z,35.97
2022-12-15T05:48:40.284Z,41.37
2022-12-15T05:51:45.419Z,37.30
2022-12-15T05:54:48.561Z,46.87
2022-12-15T05:57:54.120Z,37.10
2022-12-15T06:01:04.718Z,32.93
2022-12-15T06:04:08.614Z,36.77
2022-12-15T06:07:11.784Z,37.67
2022-12-15T06:10:14.904Z,41.73
2022-12-15T06:13:20.075Z,35.37
2022-12-15T06:16:24.898Z,36.07
2022-12-15T06:19:28.070Z,38.97
2022-12-15T06:22:31.334Z,44.63
2022-12-15T06:25:34.512Z,62.90
2022-12-15T06:28:39.247Z,36.43
2022-12-15T06:31:42.883Z,31.70
2022-12-15T06:34:46.218Z,40.27
2022-12-15T06:37:49.319Z,39.90
2022-12-15T06:40:56.497Z,31.50
2022-12-15T06:44:01.753Z,40.03
2022-12-15T06:47:05.019Z,41.77
2022-12-15T06:50:08.772Z,37.03
2022-12-15T06:53:11.980Z,37.10
2022-12-15T06:56:18.692Z,33.90
2022-12-15T06:59:23.160Z,31.37
2022-12-15T07:02:28.986Z,31.47
2022-12-15T07:05:32.510Z,35.80
2022-12-15T07:08:41.384Z,39.63
2022-12-15T07:11:45.234Z,35.27
2022-12-15T07:14:53.415Z,38.43
2022-12-15T07:17:56.868Z,34.50
2022-12-15T07:21:04.488Z,32.00
2022-12-15T07:24:08.529Z,38.70
2022-12-15T07:27:11.815Z,35.60
2022-12-15T07:30:17.646Z,31.90
2022-12-15T07:33:20.756Z,30.30
2022-12-15T07:36:23.868Z,33.40
2022-12-15T07:39:27.424Z,30.83
2022-12-15T07:42:31.097Z,35.80
2022-12-15T07:45:35.594Z,39.27
2022-12-15T07:48:38.747Z,32.37
2022-12-15T07:51:42.227Z,32.20
2022-12-15T07:54:45.425Z,34.80
2022-12-15T07:57:48.822Z,32.73
2022-12-15T08:00:53.442Z,37.07
2022-12-15T08:03:56.829Z,33.60
2022-12-15T08:07:00.299Z,35.37
2022-12-15T08:10:03.580Z,36.03
2022-12-15T08:13:06.756Z,34.90
2022-12-15T08:16:11.623Z,38.20
2022-12-15T08:19:16.884Z,30.50
2022-12-15T08:22:20.098Z,35.90
2022-12-15T08:25:23.271Z,32.00
2022-12-15T08:28:26.384Z,37.10
2022-12-15T08:31:32.917Z,35.90
2022-12-15T08:34:36.573Z,36.93
2022-12-15T08:37:40.324Z,32.37
2022-12-15T08:40:43.510Z,39.30
2022-12-15T08:43:49.185Z,33.67
2022-12-15T08:46:54.097Z,38.17
2022-12-15T08:49:57.206Z,37.33
2022-12-15T08:53:29.627Z,36.63
2022-12-15T08:56:25.347Z,33.83
2022-12-15T08:59:28.594Z,34.30
2022-12-15T09:02:33.782Z,32.67
2022-12-15T09:05:37.141Z,36.70
2022-12-15T09:08:40.292Z,37.37
2022-12-15T09:11:43.418Z,41.07
2022-12-15T09:14:46.524Z,46.03
2022-12-15T09:17:51.042Z,37.57
2022-12-15T09:20:55.095Z,36.20
2022-12-15T09:24:00.874Z,37.00
2022-12-15T09:27:05.124Z,41.00
2022-12-15T09:30:09.693Z,37.47
2022-12-15T09:33:14.165Z,46.00
2022-12-15T09:36:17.340Z,41.00
2022-12-15T09:39:20.638Z,42.40
2022-12-15T09:42:25.999Z,37.40
2022-12-15T09:45:35.480Z,42.33
2022-12-15T09:48:42.985Z,41.07
2022-12-15T09:51:57.037Z,40.57
2022-12-15T09:55:01.815Z,43.23
2022-12-15T09:58:13.662Z,36.80
2022-12-15T10:01:29.084Z,42.83
2022-12-15T10:04:43.165Z,45.97
2022-12-15T10:07:50.448Z,36.77
2022-12-15T10:10:57.558Z,39.37
2022-12-15T10:14:07.448Z,44.77
2022-12-15T10:17:21.486Z,40.30
2022-12-15T10:20:27.841Z,36.00
2022-12-15T10:23:31.458Z,45.80
2022-12-15T10:26:36.443Z,39.77
2022-12-15T10:29:45.127Z,40.77
2022-12-15T10:33:02.619Z,40.87
2022-12-15T10:36:12.132Z,46.50
2022-12-15T10:39:17.678Z,39.10
2022-12-15T10:42:22.907Z,41.90
2022-12-15T10:45:35.761Z,39.93
2022-12-15T10:48:39.157Z,43.63
2022-12-15T10:51:49.001Z,39.23
2022-12-15T10:54:53.795Z,40.60
2022-12-15T10:58:00.917Z,36.97
2022-12-15T11:01:09.309Z,38.43
2022-12-15T11:04:27.212Z,38.23
2022-12-15T11:07:36.778Z,39.47
2022-12-15T11:11:09.182Z,36.43
2022-12-15T11:14:16.315Z,45.97
2022-12-15T11:17:21.145Z,40.53
2022-12-15T11:20:29.914Z,34.73
2022-12-15T11:23:51.299Z,39.00
2022-12-15T11:26:58.682Z,36.97
2022-12-15T11:30:05.836Z,30.70
2022-12-15T11:33:10.698Z,38.23
2022-12-15T11:36:22.140Z,39.03
2022-12-15T11:39:46.986Z,34.07
2022-12-15T11:43:06.821Z,34.87
2022-12-15T11:46:20.775Z,32.37
2022-12-15T11:49:52.388Z,34.10
2022-12-15T11:53:15.876Z,31.37
2022-12-15T11:56:28.429Z,36.00
2022-12-15T11:59:48.446Z,39.73
2022-12-15T12:03:02.004Z,35.47
2022-12-15T12:06:12.989Z,33.47
2022-12-15T12:09:30.402Z,33.20
2022-12-15T12:12:41.419Z,36.50
2022-12-15T12:15:55.669Z,35.83
2022-12-15T12:19:03.650Z,33.90
2022-12-15T12:22:12.967Z,37.07
2022-12-15T12:25:20.382Z,33.80
2022-12-15T12:28:33.191Z,34.07
2022-12-15T12:31:47.825Z,34.73
2022-12-15T12:35:32.210Z,31.23
2022-12-15T12:38:29.425Z,34.80
2022-12-15T12:41:40.517Z,34.90
2022-12-15T12:44:45.598Z,33.90
2022-12-15T12:47:54.175Z,32.13
2022-12-15T12:51:13.713Z,35.73
2022-12-15T12:54:48.642Z,33.87
2022-12-15T12:57:54.424Z,32.97
2022-12-15T13:01:17.957Z,35.07
2022-12-15T13:04:40.040Z,34.20
2022-12-15T13:07:43.215Z,38.13
2022-12-15T13:10:50.890Z,38.10
2022-12-15T13:13:55.314Z,33.93
2022-12-15T13:17:26.079Z,35.80
2022-12-15T13:20:31.044Z,33.77
2022-12-15T13:23:41.691Z,39.80
2022-12-15T13:30:17.065Z,38.20
2022-12-15T13:33:21.609Z,39.43
2022-12-15T13:37:00.527Z,44.07
2022-12-15T13:40:23.940Z,44.70
2022-12-15T13:43:44.650Z,42.90
2022-12-15T13:46:49.540Z,43.17
2022-12-15T13:50:02.715Z,58.73
2022-12-15T13:53:19.417Z,49.83
2022-12-15T13:56:33.512Z,42.67
2022-12-15T13:59:43.729Z,44.27
2022-12-15T14:02:47.421Z,39.63
2022-12-15T14:05:55.400Z,39.93
2022-12-15T14:08:58.607Z,42.43
2022-12-15T14:12:03.590Z,47.97
2022-12-15T14:15:08.302Z,47.27
2022-12-15T14:18:26.803Z,45.10
2022-12-15T14:21:31.563Z,53.03
2022-12-15T14:24:40.223Z,46.77
2022-12-15T14:27:43.764Z,49.70
2022-12-15T14:30:46.907Z,43.97
2022-12-15T14:34:01.693Z,40.83
2022-12-15T14:37:11.799Z,37.70
2022-12-15T14:40:18.142Z,49.00
2022-12-15T14:43:24.766Z,44.03
2022-12-15T14:46:29.540Z,38.30
2022-12-15T14:49:37.387Z,36.53
2022-12-15T14:52:44.692Z,45.67
2022-12-15T14:55:47.878Z,45.53
2022-12-15T14:58:59.334Z,41.80
2022-12-15T15:02:12.866Z,40.07
2022-12-15T15:05:28.573Z,42.30
2022-12-15T15:08:36.258Z,42.53
2022-12-15T15:11:42.889Z,42.13
2022-12-15T15:14:48.103Z,42.30
2022-12-15T15:17:53.511Z,42.70
2022-12-15T15:20:59.985Z,38.83
2022-12-15T15:24:21.270Z,45.40
2022-12-15T15:27:27.041Z,42.23
2022-12-15T15:30:31.278Z,40.57
2022-12-15T15:33:34.661Z,40.10
2022-12-15T15:36:39.871Z,41.97
2022-12-15T15:39:44.407Z,42.13
2022-12-15T15:42:49.082Z,40.90
2022-12-15T15:46:00.139Z,42.97
2022-12-15T15:49:06.444Z,39.33
2022-12-15T15:52:10.872Z,43.23
2022-12-15T15:55:25.849Z,41.90
2022-12-15T15:58:29.303Z,41.63
2022-12-15T16:01:32.893Z,40.80
2022-12-15T16:04:37.263Z,43.83
2022-12-15T16:07:40.582Z,46.77
2022-12-15T16:10:48.731Z,50.40
2022-12-15T16:13:51.906Z,44.50
2022-12-15T16:16:55.078Z,51.43
2022-12-15T16:19:58.186Z,49.97
2022-12-15T16:23:03.454Z,56.57
2022-12-15T16:26:15.513Z,59.87
2022-12-15T16:29:20.747Z,52.83
2022-12-15T16:32:23.960Z,59.67
2022-12-15T16:35:27.860Z,61.13
2022-12-15T16:38:32.997Z,57.13
2022-12-15T16:41:37.935Z,57.57
2022-12-15T16:44:41.176Z,50.40
2022-12-15T16:47:44.323Z,51.27
2022-12-15T16:50:51.965Z,52.20
2022-12-15T16:53:55.241Z,53.13
2022-12-15T16:57:01.681Z,54.80
2022-12-15T17:00:15.793Z,49.10
2022-12-15T17:03:23.421Z,50.57
2022-12-15T17:06:27.668Z,53.47
2022-12-15T17:09:35.584Z,47.73
2022-12-15T17:12:40.103Z,46.57
2022-12-15T17:15:43.480Z,46.43
2022-12-15T17:18:47.068Z,49.40
2022-12-15T17:21:53.071Z,46.67
2022-12-15T17:24:56.883Z,48.00
2022-12-15T17:28:06.653Z,43.83
2022-12-15T17:31:17.884Z,45.83
2022-12-15T17:34:29.181Z,52.10
2022-12-15T17:37:35.374Z,51.37
2022-12-15T17:40:39.402Z,47.00
2022-12-15T17:43:44.950Z,43.20
2022-12-15T17:46:48.659Z,48.20
2022-12-15T17:49:52.254Z,47.37
2022-12-15T17:52:56.044Z,43.03
2022-12-15T17:55:59.765Z,49.83
2022-12-15T17:59:05.692Z,49.87
2022-12-15T18:02:12.629Z,48.70
2022-12-15T18:05:17.363Z,47.67
2022-12-15T18:08:23.304Z,50.17
2022-12-15T18:11:26.495Z,55.67
2022-12-15T18:14:31.498Z,53.67
2022-12-15T18:17:35.061Z,49.90
2022-12-15T18:20:38.646Z,50.40
2022-12-15T18:23:43.484Z,44.43
2022-12-15T18:26:47.733Z,48.27
2022-12-15T18:29:52.888Z,51.50
2022-12-15T18:33:00.117Z,47.77
2022-12-15T18:36:04.263Z,50.17
2022-12-15T18:39:18.039Z,48.67
2022-12-15T18:42:22.991Z,50.40
2022-12-15T18:45:28.582Z,48.70
2022-12-15T18:48:35.155Z,48.13
2022-12-15T18:51:39.348Z,44.23
2022-12-15T18:54:43.818Z,50.67
2022-12-15T18:57:47.795Z,47.13
2022-12-15T19:00:53.847Z,49.07
2022-12-15T19:03:58.082Z,51.30
2022-12-15T19:07:06.665Z,48.37
2022-12-15T19:10:15.245Z,51.20
2022-12-15T19:13:23.057Z,47.33
2022-12-15T19:16:48.965Z,49.47
2022-12-15T19:20:10.256Z,49.23
2022-12-15T19:23:19.539Z,52.93
2022-12-15T19:26:24.963Z,52.00
2022-12-15T19:29:30.884Z,53.87
2022-12-15T19:32:36.362Z,54.77
2022-12-15T19:35:41.696Z,51.43
2022-12-15T19:38:47.571Z,58.03
2022-12-15T19:41:52.611Z,57.00
2022-12-15T19:45:01.657Z,58.87
2022-12-15T19:48:08.045Z,58.63
2022-12-15T19:51:19.507Z,61.07
2022-12-15T19:54:24.371Z,60.23
2022-12-15T19:57:28.472Z,76.20
2022-12-15T20:00:32.373Z,63.77
2022-12-15T20:03:38.765Z,62.60
2022-12-15T20:06:44.335Z,63.60
2022-12-15T20:09:48.607Z,64.23
2022-12-15T20:12:52.555Z,80.70
2022-12-15T20:15:56.890Z,66.60
2022-12-15T20:19:02.867Z,65.43
2022-12-15T20:22:06.949Z,55.97
2022-12-15T20:25:16.584Z,58.27
2022-12-15T20:28:23.437Z,60.87
2022-12-15T20:31:28.366Z,58.83
2022-12-15T20:34:33.196Z,54.87
2022-12-15T20:37:37.033Z,57.77
2022-12-15T20:40:40.869Z,56.87
2022-12-15T20:43:45.067Z,61.23
2022-12-15T20:46:48.672Z,65.13
2022-12-15T20:49:55.275Z,54.53
2022-12-15T20:52:58.564Z,52.80
2022-12-15T20:56:02.039Z,58.90
2022-12-15T20:59:06.253Z,70.13
2022-12-15T21:02:19.479Z,65.27
2022-12-15T21:05:26.179Z,58.63
2022-12-15T21:08:31.496Z,59.70
2022-12-15T21:11:34.972Z,56.63
2022-12-15T21:14:38.172Z,58.17
2022-12-15T21:17:42.217Z,59.50
2022-12-15T21:20:51.967Z,65.63
2022-12-15T21:23:55.790Z,65.37
2022-12-15T21:26:59.213Z,58.53
2022-12-15T21:30:02.451Z,58.27
2022-12-15T21:33:05.673Z,65.87
2022-12-15T21:36:13.576Z,63.50
2022-12-15T21:39:23.404Z,59.90
2022-12-15T21:42:27.393Z,57.00
2022-12-15T21:45:30.509Z,66.63
2022-12-15T21:49:05.906Z,62.03
2022-12-15T21:52:11.468Z,64.47
2022-12-15T21:55:16.648Z,62.47
2022-12-15T21:58:22.432Z,69.77
2022-12-15T22:01:29.611Z,64.63
2022-12-15T22:04:35.266Z,59.00
2022-12-15T22:07:39.722Z,70.13
2022-12-15T22:10:42.915Z,61.50
2022-12-15T22:13:46.129Z,60.40
2022-12-15T22:16:49.241Z,66.10
2022-12-15T22:19:52.418Z,59.57
2022-12-15T22:22:56.945Z,60.50
2022-12-15T22:26:00.135Z,63.50
2022-12-15T22:29:04.505Z,62.67
2022-12-15T22:32:14.054Z,67.23
2022-12-15T22:35:19.270Z,63.23
2022-12-15T22:38:24.564Z,64.90
2022-12-15T22:41:27.749Z,60.70
2022-12-15T22:44:33.859Z,59.07
2022-12-15T22:47:38.714Z,59.80
2022-12-15T22:50:41.999Z,60.53
2022-12-15T22:53:46.826Z,57.37
2022-12-15T22:56:53.708Z,62.23
2022-12-15T23:00:04.063Z,61.80
2022-12-15T23:03:10.240Z,64.13
2022-12-15T23:06:13.438Z,64.83
2022-12-15T23:09:17.895Z,67.60
2022-12-15T23:12:20.391Z,73.87
2022-12-15T23:15:42.608Z,67.13
2022-12-15T23:18:45.947Z,64.30
2022-12-15T23:21:49.042Z,62.47
2022-12-15T23:24:53.521Z,61.87
2022-12-15T23:27:56.650Z,65.30
2022-12-15T23:30:59.833Z,58.77
2022-12-15T23:34:02.955Z,60.90
2022-12-15T23:37:06.075Z,75.17
2022-12-15T23:40:12.558Z,62.33
2022-12-15T23:43:15.758Z,67.13
2022-12-15T23:46:19.545Z,73.70
2022-12-15T23:49:22.647Z,67.53
2022-12-15T23:52:28.648Z,64.00
2022-12-15T23:55:35.388Z,71.43
2022-12-15T23:58:39.406Z,77.00
